createdAt,value
2016-03-10T00:00:47.669Z,1002.27
2016-03-10T00:01:47.657Z,1002.29
2016-03-10T00:02:47.628Z,1002.28
2016-03-10T00:03:47.615Z,1002.32
2016-03-10T00:04:47.571Z,1002.34
2016-03-10T00:05:47.558Z,1002.34
2016-03-10T00:06:47.520Z,1002.36
2016-03-10T00:07:47.507Z,1002.38
2016-03-10T00:08:47.478Z,1002.38
2016-03-10T00:09:47.465Z,1002.45
2016-03-10T00:10:47.437Z,1002.43
2016-03-10T00:11:47.392Z,1002.43
2016-03-10T00:12:47.380Z,1002.45
2016-03-10T00:13:47.350Z,1002.46
2016-03-10T00:14:47.322Z,1002.42
2016-03-10T00:15:47.310Z,1002.45
2016-03-10T00:16:47.281Z,1002.49
2016-03-10T00:17:47.252Z,1002.52
2016-03-10T00:18:47.225Z,1002.56
2016-03-10T00:19:47.211Z,1002.53
2016-03-10T00:20:47.183Z,1002.57
2016-03-10T00:21:47.154Z,1002.57
2016-03-10T00:22:47.125Z,1002.63
2016-03-10T00:23:47.096Z,1002.65
2016-03-10T00:24:47.069Z,1002.63
2016-03-10T00:25:47.055Z,1002.63
2016-03-10T00:26:47.027Z,1002.66
2016-03-10T00:27:47.013Z,1002.69
2016-03-10T00:28:46.970Z,1002.68
2016-03-10T00:29:46.957Z,1002.72
2016-03-10T00:30:46.928Z,1002.72
2016-03-10T00:31:47.171Z,1002.81
2016-03-10T00:32:46.881Z,1002.8
2016-03-10T00:33:46.853Z,1002.8
2016-03-10T00:34:46.823Z,1002.85
2016-03-10T00:35:46.795Z,1002.86
2016-03-10T00:36:46.767Z,1002.88
2016-03-10T00:37:46.746Z,1002.89
2016-03-10T00:38:46.732Z,1002.9
2016-03-10T00:39:46.703Z,1002.94
2016-03-10T00:40:46.674Z,1002.93
2016-03-10T00:41:46.645Z,1002.99
2016-03-10T00:42:46.618Z,1003.02
2016-03-10T00:43:46.604Z,1003.03
2016-03-10T00:44:46.576Z,1003.03
2016-03-10T00:45:46.548Z,1003.06
2016-03-10T00:46:46.535Z,1003.09
2016-03-10T00:47:46.506Z,1003.15
2016-03-10T00:48:46.462Z,1003.16
2016-03-10T00:49:46.464Z,1003.17
2016-03-10T00:50:46.420Z,1003.17
2016-03-10T00:51:46.392Z,1003.18
2016-03-10T00:52:46.379Z,1003.18
2016-03-10T00:53:46.351Z,1003.15
2016-03-10T00:54:46.322Z,1003.15
2016-03-10T00:55:46.293Z,1003.15
2016-03-10T00:56:46.264Z,1003.2
2016-03-10T00:57:46.252Z,1003.2
2016-03-10T00:58:46.222Z,1003.18
2016-03-10T00:59:46.195Z,1003.18
2016-03-10T01:00:46.166Z,1003.21
2016-03-10T01:01:46.138Z,1003.2
2016-03-10T01:02:46.124Z,1003.23
2016-03-10T01:03:46.096Z,1003.23
2016-03-10T01:04:46.067Z,1003.24
2016-03-10T01:05:46.055Z,1003.22
2016-03-10T01:06:46.026Z,1003.24
2016-03-10T01:07:46.013Z,1003.27
2016-03-10T01:08:45.968Z,1003.25
2016-03-10T01:09:45.940Z,1003.29
2016-03-10T01:10:45.927Z,1003.28
2016-03-10T01:11:45.899Z,1003.3
2016-03-10T01:12:45.870Z,1003.33
2016-03-10T01:13:45.842Z,1003.33
2016-03-10T01:14:45.829Z,1003.36
2016-03-10T01:15:45.784Z,1003.34
2016-03-10T01:16:45.771Z,1003.38
2016-03-10T01:17:45.742Z,1003.39
2016-03-10T01:18:45.714Z,1003.39
2016-03-10T01:19:45.686Z,1003.41
2016-03-10T01:20:45.673Z,1003.41
2016-03-10T01:21:45.644Z,1003.42
2016-03-10T01:22:45.616Z,1003.38
2016-03-10T01:23:45.586Z,1003.45
2016-03-10T01:24:45.559Z,1003.45
2016-03-10T01:25:45.530Z,1003.47
2016-03-10T01:26:45.517Z,1003.43
2016-03-10T01:27:45.489Z,1003.46
2016-03-10T01:28:45.742Z,1003.5
2016-03-10T01:29:45.447Z,1003.48
2016-03-10T01:30:45.419Z,1003.51
2016-03-10T01:31:45.390Z,1003.5
2016-03-10T01:32:45.361Z,1003.5
2016-03-10T01:33:45.333Z,1003.53
2016-03-10T01:34:45.305Z,1003.53
2016-03-10T01:35:45.291Z,1003.57
2016-03-10T01:36:45.262Z,1003.57
2016-03-10T01:37:45.234Z,1003.58
2016-03-10T01:38:45.205Z,1003.57
2016-03-10T01:39:45.193Z,1003.57
2016-03-10T01:40:45.164Z,1003.58
2016-03-10T01:41:45.136Z,1003.55
2016-03-10T01:42:45.107Z,1003.58
2016-03-10T01:43:45.079Z,1003.59
2016-03-10T01:44:45.065Z,1003.6
2016-03-10T01:45:45.037Z,1003.6
2016-03-10T01:46:45.008Z,1003.62
2016-03-10T01:47:44.980Z,1003.62
2016-03-10T01:48:44.951Z,1003.61
2016-03-10T01:49:44.923Z,1003.63
2016-03-10T01:50:44.909Z,1003.61
2016-03-10T01:51:44.881Z,1003.66
2016-03-10T01:52:44.853Z,1003.66
2016-03-10T01:53:44.840Z,1003.66
2016-03-10T01:54:44.811Z,1003.67
2016-03-10T01:55:44.783Z,1003.66
2016-03-10T01:56:44.801Z,1003.66
2016-03-10T01:57:44.725Z,1003.62
2016-03-10T01:58:44.713Z,1003.65
2016-03-10T01:59:44.683Z,1003.65
2016-03-10T02:00:44.655Z,1003.68
2016-03-10T02:01:44.627Z,1003.68
2016-03-10T02:02:44.598Z,1003.65
2016-03-10T02:03:44.569Z,1003.69
2016-03-10T02:04:44.557Z,1003.69
2016-03-10T02:05:44.527Z,1003.71
2016-03-10T02:06:44.500Z,1003.67
2016-03-10T02:07:44.471Z,1003.7
2016-03-10T02:08:44.458Z,1003.71
2016-03-10T02:09:44.430Z,1003.73
2016-03-10T02:10:44.402Z,1003.71
2016-03-10T02:11:44.373Z,1003.72
2016-03-10T02:12:44.360Z,1003.75
2016-03-10T02:13:44.331Z,1003.72
2016-03-10T02:14:44.302Z,1003.75
2016-03-10T02:15:44.274Z,1003.69
2016-03-10T02:16:44.245Z,1003.76
2016-03-10T02:17:44.232Z,1003.75
2016-03-10T02:18:44.203Z,1003.75
2016-03-10T02:19:44.175Z,1003.76
2016-03-10T02:20:44.147Z,1003.76
2016-03-10T02:21:44.118Z,1003.78
2016-03-10T02:22:44.105Z,1003.81
2016-03-10T02:23:44.062Z,1003.82
2016-03-10T02:24:44.048Z,1003.86
2016-03-10T02:25:44.020Z,1003.85
2016-03-10T02:26:43.991Z,1003.86
2016-03-10T02:27:43.962Z,1003.87
2016-03-10T02:28:43.949Z,1003.9
2016-03-10T02:29:43.922Z,1003.89
2016-03-10T02:30:43.892Z,1003.95
2016-03-10T02:31:43.864Z,1003.97
2016-03-10T02:32:43.835Z,1003.97
2016-03-10T02:33:43.822Z,1003.96
2016-03-10T02:34:43.794Z,1003.99
2016-03-10T02:35:43.765Z,1004
2016-03-10T02:36:43.736Z,1004.01
2016-03-10T02:37:43.708Z,1004.04
2016-03-10T02:38:43.711Z,1004.03
2016-03-10T02:39:43.666Z,1004.08
2016-03-10T02:40:43.638Z,1004.07
2016-03-10T02:41:43.624Z,1004.09
2016-03-10T02:42:43.581Z,1004.07
2016-03-10T02:43:43.568Z,1004.1
2016-03-10T02:44:43.540Z,1004.11
2016-03-10T02:45:43.510Z,1004.18
2016-03-10T02:46:43.498Z,1004.16
2016-03-10T02:47:43.453Z,1004.13
2016-03-10T02:48:43.457Z,1004.2
2016-03-10T02:49:43.412Z,1004.19
2016-03-10T02:50:43.399Z,1004.18
2016-03-10T02:51:43.370Z,1004.2
2016-03-10T02:52:43.343Z,1004.21
2016-03-10T02:53:43.345Z,1004.21
2016-03-10T02:54:43.285Z,1004.21
2016-03-10T02:55:43.272Z,1004.23
2016-03-10T02:56:43.228Z,1004.24
2016-03-10T02:57:43.200Z,1004.22
2016-03-10T02:58:43.187Z,1004.24
2016-03-10T02:59:43.158Z,1004.22
2016-03-10T03:00:43.129Z,1004.25
2016-03-10T03:01:43.100Z,1004.26
2016-03-10T03:02:43.088Z,1004.28
2016-03-10T03:03:43.059Z,1004.29
2016-03-10T03:04:43.030Z,1004.29
2016-03-10T03:05:43.018Z,1004.31
2016-03-10T03:06:42.974Z,1004.32
2016-03-10T03:07:42.945Z,1004.33
2016-03-10T03:08:42.916Z,1004.37
2016-03-10T03:09:42.904Z,1004.35
2016-03-10T03:10:42.890Z,1004.39
2016-03-10T03:11:42.846Z,1004.38
2016-03-10T03:12:42.833Z,1004.43
2016-03-10T03:13:42.805Z,1004.47
2016-03-10T03:14:42.776Z,1004.46
2016-03-10T03:15:42.748Z,1004.5
2016-03-10T03:16:42.719Z,1004.5
2016-03-10T03:17:42.707Z,1004.52
2016-03-10T03:18:42.662Z,1004.52
2016-03-10T03:19:42.649Z,1004.51
2016-03-10T03:20:42.621Z,1004.54
2016-03-10T03:21:42.843Z,1004.55
2016-03-10T03:22:42.564Z,1004.58
2016-03-10T03:23:42.535Z,1004.57
2016-03-10T03:24:42.522Z,1004.58
2016-03-10T03:25:42.493Z,1004.58
2016-03-10T03:26:42.465Z,1004.59
2016-03-10T03:27:42.437Z,1004.6
2016-03-10T03:28:42.423Z,1004.61
2016-03-10T03:29:42.410Z,1004.62
2016-03-10T03:30:42.381Z,1004.65
2016-03-10T03:31:42.338Z,1004.68
2016-03-10T03:32:42.325Z,1004.69
2016-03-10T03:33:42.296Z,1004.71
2016-03-10T03:34:42.267Z,1004.68
2016-03-10T03:35:42.239Z,1004.68
2016-03-10T03:36:42.227Z,1004.69
2016-03-10T03:37:42.197Z,1004.68
2016-03-10T03:38:42.168Z,1004.73
2016-03-10T03:39:42.140Z,1004.72
2016-03-10T03:40:42.112Z,1004.79
2016-03-10T03:41:42.083Z,1004.76
2016-03-10T03:42:42.054Z,1004.8
2016-03-10T03:43:42.041Z,1004.81
2016-03-10T03:44:42.012Z,1004.8
2016-03-10T03:45:41.984Z,1004.83
2016-03-10T03:46:41.956Z,1004.85
2016-03-10T03:47:41.927Z,1004.85
2016-03-10T03:48:41.914Z,1004.83
2016-03-10T03:49:41.887Z,1004.86
2016-03-10T03:50:41.857Z,1004.87
2016-03-10T03:51:41.829Z,1004.86
2016-03-10T03:52:41.815Z,1004.89
2016-03-10T03:53:41.787Z,1004.9
2016-03-10T03:54:41.759Z,1004.89
2016-03-10T03:55:41.731Z,1004.87
2016-03-10T03:56:41.701Z,1004.92
2016-03-10T03:57:41.673Z,1004.93
2016-03-10T03:58:41.660Z,1004.96
2016-03-10T03:59:41.631Z,1004.93
2016-03-10T04:00:41.603Z,1004.93
2016-03-10T04:01:41.575Z,1004.98
2016-03-10T04:02:41.546Z,1004.98
2016-03-10T04:03:41.533Z,1004.97
2016-03-10T04:04:41.505Z,1005.02
2016-03-10T04:05:41.476Z,1005.07
2016-03-10T04:06:41.447Z,1005.06
2016-03-10T04:07:41.419Z,1005.05
2016-03-10T04:08:41.405Z,1005.04
2016-03-10T04:09:41.361Z,1005.08
2016-03-10T04:10:41.349Z,1005.08
2016-03-10T04:11:41.320Z,1005.09
2016-03-10T04:12:41.291Z,1005.08
2016-03-10T04:13:41.278Z,1005.1
2016-03-10T04:14:41.250Z,1005.15
2016-03-10T04:15:41.221Z,1005.14
2016-03-10T04:16:41.209Z,1005.16
2016-03-10T04:17:41.164Z,1005.15
2016-03-10T04:18:41.152Z,1005.19
2016-03-10T04:19:41.123Z,1005.21
2016-03-10T04:20:41.095Z,1005.24
2016-03-10T04:21:41.066Z,1005.24
2016-03-10T04:22:41.038Z,1005.27
2016-03-10T04:23:41.009Z,1005.28
2016-03-10T04:24:40.996Z,1005.26
2016-03-10T04:25:40.968Z,1005.28
2016-03-10T04:26:40.939Z,1005.31
2016-03-10T04:27:40.909Z,1005.3
2016-03-10T04:28:40.881Z,1005.32
2016-03-10T04:29:40.869Z,1005.31
2016-03-10T04:30:40.840Z,1005.36
2016-03-10T04:31:40.811Z,1005.35
2016-03-10T04:32:40.783Z,1005.34
2016-03-10T04:33:40.755Z,1005.34
2016-03-10T04:34:40.726Z,1005.34
2016-03-10T04:35:40.713Z,1005.39
2016-03-10T04:36:40.683Z,1005.39
2016-03-10T04:37:40.655Z,1005.39
2016-03-10T04:38:40.627Z,1005.38
2016-03-10T04:39:40.599Z,1005.44
2016-03-10T04:40:40.585Z,1005.42
2016-03-10T04:41:40.557Z,1005.42
2016-03-10T04:42:40.528Z,1005.43
2016-03-10T04:43:40.499Z,1005.46
2016-03-10T04:44:40.471Z,1005.46
2016-03-10T04:45:40.458Z,1005.47
2016-03-10T04:46:40.414Z,1005.49
2016-03-10T04:47:40.401Z,1005.47
2016-03-10T04:48:40.373Z,1005.48
2016-03-10T04:49:40.376Z,1005.53
2016-03-10T04:50:40.331Z,1005.52
2016-03-10T04:51:40.303Z,1005.54
2016-03-10T04:52:40.273Z,1005.58
2016-03-10T04:53:40.246Z,1005.57
2016-03-10T04:54:40.217Z,1005.59
2016-03-10T04:55:40.204Z,1005.61
2016-03-10T04:56:40.175Z,1005.61
2016-03-10T04:57:40.147Z,1005.62
2016-03-10T04:58:40.117Z,1005.61
2016-03-10T04:59:40.090Z,1005.64
2016-03-10T05:00:40.061Z,1005.68
2016-03-10T05:01:40.033Z,1005.68
2016-03-10T05:02:40.019Z,1005.7
2016-03-10T05:03:39.991Z,1005.7
2016-03-10T05:04:39.963Z,1005.7
2016-03-10T05:05:39.933Z,1005.71
2016-03-10T05:06:39.921Z,1005.72
2016-03-10T05:07:39.892Z,1005.76
2016-03-10T05:08:39.864Z,1005.76
2016-03-10T05:09:39.835Z,1005.79
2016-03-10T05:10:39.807Z,1005.77
2016-03-10T05:11:39.794Z,1005.82
2016-03-10T05:12:39.750Z,1005.83
2016-03-10T05:13:39.738Z,1005.84
2016-03-10T05:14:39.771Z,1005.89
2016-03-10T05:15:39.680Z,1005.86
2016-03-10T05:16:39.651Z,1005.83
2016-03-10T05:17:39.638Z,1005.88
2016-03-10T05:18:39.610Z,1005.92
2016-03-10T05:19:39.581Z,1005.93
2016-03-10T05:20:39.552Z,1005.94
2016-03-10T05:21:39.524Z,1005.94
2016-03-10T05:22:39.511Z,1005.96
2016-03-10T05:23:39.467Z,1005.96
2016-03-10T05:24:39.454Z,1006.01
2016-03-10T05:25:39.425Z,1006
2016-03-10T05:26:39.397Z,1006
2016-03-10T05:27:39.384Z,1005.99
2016-03-10T05:28:39.356Z,1006.03
2016-03-10T05:29:39.326Z,1006.04
2016-03-10T05:30:39.298Z,1006.03
2016-03-10T05:31:39.270Z,1006.02
2016-03-10T05:32:39.256Z,1006.12
2016-03-10T05:33:39.228Z,1006.14
2016-03-10T05:34:39.199Z,1006.13
2016-03-10T05:35:39.171Z,1006.14
2016-03-10T05:36:39.142Z,1006.19
2016-03-10T05:37:39.113Z,1006.19
2016-03-10T05:38:39.100Z,1006.18
2016-03-10T05:39:39.072Z,1006.19
2016-03-10T05:40:39.043Z,1006.2
2016-03-10T05:41:39.015Z,1006.24
2016-03-10T05:42:38.986Z,1006.22
2016-03-10T05:43:38.958Z,1006.24
2016-03-10T05:44:38.946Z,1006.26
2016-03-10T05:45:38.916Z,1006.26
2016-03-10T05:46:38.888Z,1006.31
2016-03-10T05:47:38.860Z,1006.31
2016-03-10T05:48:38.832Z,1006.34
2016-03-10T05:49:38.818Z,1006.34
2016-03-10T05:50:38.790Z,1006.36
2016-03-10T05:51:38.761Z,1006.38
2016-03-10T05:52:38.763Z,1006.4
2016-03-10T05:53:38.704Z,1006.4
2016-03-10T05:54:38.706Z,1006.41
2016-03-10T05:55:38.646Z,1006.43
2016-03-10T05:56:38.618Z,1006.44
2016-03-10T05:57:38.605Z,1006.42
2016-03-10T05:58:38.576Z,1006.46
2016-03-10T05:59:38.548Z,1006.49
2016-03-10T06:00:38.519Z,1006.49
2016-03-10T06:01:38.506Z,1006.5
2016-03-10T06:02:38.477Z,1006.52
2016-03-10T06:03:38.449Z,1006.51
2016-03-10T06:04:38.420Z,1006.56
2016-03-10T06:05:38.392Z,1006.55
2016-03-10T06:06:38.378Z,1006.58
2016-03-10T06:07:38.348Z,1006.61
2016-03-10T06:08:38.320Z,1006.59
2016-03-10T06:09:38.292Z,1006.6
2016-03-10T06:10:38.279Z,1006.64
2016-03-10T06:11:38.500Z,1006.64
2016-03-10T06:12:38.252Z,1006.65
2016-03-10T06:13:38.224Z,1006.71
2016-03-10T06:14:38.164Z,1006.67
2016-03-10T06:15:38.136Z,1006.71
2016-03-10T06:16:38.107Z,1006.66
2016-03-10T06:17:38.078Z,1006.7
2016-03-10T06:18:38.066Z,1006.73
2016-03-10T06:19:38.038Z,1006.73
2016-03-10T06:20:38.008Z,1006.77
2016-03-10T06:21:37.980Z,1006.73
2016-03-10T06:22:37.966Z,1006.76
2016-03-10T06:23:37.938Z,1006.73
2016-03-10T06:24:37.910Z,1006.75
2016-03-10T06:25:37.882Z,1006.77
2016-03-10T06:26:37.852Z,1006.76
2016-03-10T06:27:37.840Z,1006.74
2016-03-10T06:28:37.811Z,1006.77
2016-03-10T06:29:37.782Z,1006.81
2016-03-10T06:30:37.754Z,1006.79
2016-03-10T06:31:37.726Z,1006.82
2016-03-10T06:32:37.697Z,1006.86
2016-03-10T06:33:37.685Z,1006.83
2016-03-10T06:34:37.656Z,1006.89
2016-03-10T06:35:37.627Z,1006.87
2016-03-10T06:36:37.598Z,1006.92
2016-03-10T06:37:37.570Z,1006.93
2016-03-10T06:38:37.541Z,1006.93
2016-03-10T06:39:37.529Z,1006.97
2016-03-10T06:40:37.500Z,1006.97
2016-03-10T06:41:37.472Z,1006.99
2016-03-10T06:42:37.442Z,1006.99
2016-03-10T06:43:37.414Z,1007.02
2016-03-10T06:44:37.386Z,1007
2016-03-10T06:45:37.373Z,1007.02
2016-03-10T06:46:37.344Z,1007.03
2016-03-10T06:47:37.316Z,1007.05
2016-03-10T06:48:37.287Z,1007.06
2016-03-10T06:49:37.259Z,1007.07
2016-03-10T06:50:37.261Z,1007.09
2016-03-10T06:51:37.216Z,1007.09
2016-03-10T06:52:37.189Z,1007.14
2016-03-10T06:53:37.160Z,1007.15
2016-03-10T06:54:37.132Z,1007.18
2016-03-10T06:55:37.118Z,1007.2
2016-03-10T06:56:37.090Z,1007.17
2016-03-10T06:57:37.060Z,1007.22
2016-03-10T06:58:37.049Z,1007.23
2016-03-10T06:59:37.004Z,1007.27
2016-03-10T07:00:36.991Z,1007.28
2016-03-10T07:01:36.963Z,1007.32
2016-03-10T07:02:36.935Z,1007.31
2016-03-10T07:03:36.906Z,1007.31
2016-03-10T07:04:36.877Z,1007.32
2016-03-10T07:05:36.864Z,1007.37
2016-03-10T07:06:36.835Z,1007.4
2016-03-10T07:07:36.807Z,1007.38
2016-03-10T07:08:36.779Z,1007.41
2016-03-10T07:09:36.750Z,1007.41
2016-03-10T07:10:36.720Z,1007.42
2016-03-10T07:11:36.692Z,1007.46
2016-03-10T07:12:36.680Z,1007.47
2016-03-10T07:13:36.698Z,1007.48
2016-03-10T07:14:36.622Z,1007.51
2016-03-10T07:15:36.595Z,1007.47
2016-03-10T07:16:36.566Z,1007.51
2016-03-10T07:17:36.553Z,1007.51
2016-03-10T07:18:36.524Z,1007.52
2016-03-10T07:19:36.495Z,1007.56
2016-03-10T07:20:36.466Z,1007.53
2016-03-10T07:21:36.439Z,1007.55
2016-03-10T07:22:36.425Z,1007.59
2016-03-10T07:23:36.397Z,1007.58
2016-03-10T07:24:36.368Z,1007.59
2016-03-10T07:25:36.340Z,1007.62
2016-03-10T07:26:36.311Z,1007.65
2016-03-10T07:27:36.298Z,1007.6
2016-03-10T07:28:36.269Z,1007.64
2016-03-10T07:29:36.241Z,1007.7
2016-03-10T07:30:36.213Z,1007.72
2016-03-10T07:31:36.199Z,1007.72
2016-03-10T07:32:36.155Z,1007.73
2016-03-10T07:33:36.126Z,1007.75
2016-03-10T07:34:36.115Z,1007.79
2016-03-10T07:35:36.085Z,1007.79
2016-03-10T07:36:36.057Z,1007.81
2016-03-10T07:37:36.043Z,1007.83
2016-03-10T07:38:36.015Z,1007.89
2016-03-10T07:39:35.987Z,1007.86
2016-03-10T07:40:35.958Z,1007.87
2016-03-10T07:41:35.929Z,1007.88
2016-03-10T07:42:35.901Z,1007.89
2016-03-10T07:43:35.889Z,1007.9
2016-03-10T07:44:35.859Z,1007.86
2016-03-10T07:45:36.175Z,1007.85
2016-03-10T07:46:35.803Z,1007.88
2016-03-10T07:47:35.769Z,1007.91
2016-03-10T07:48:35.748Z,1007.89
2016-03-10T07:49:35.714Z,1007.92
2016-03-10T07:50:35.678Z,1007.91
2016-03-10T07:51:35.644Z,1007.94
2016-03-10T07:52:35.612Z,1007.88
2016-03-10T07:53:35.582Z,1007.97
2016-03-10T07:54:35.550Z,1007.99
2016-03-10T07:55:35.535Z,1007.99
2016-03-10T07:56:35.505Z,1007.98
2016-03-10T07:57:35.506Z,1008.02
2016-03-10T07:58:35.446Z,1008.05
2016-03-10T07:59:35.431Z,1008.01
2016-03-10T08:00:35.402Z,1008.05
2016-03-10T08:01:35.373Z,1008.1
2016-03-10T08:02:35.344Z,1008.11
2016-03-10T08:03:35.347Z,1008.11
2016-03-10T08:04:35.442Z,1008.14
2016-03-10T08:05:35.273Z,1008.18
2016-03-10T08:06:35.244Z,1008.21
2016-03-10T08:07:35.215Z,1008.2
2016-03-10T08:08:35.186Z,1008.27
2016-03-10T08:09:35.158Z,1008.26
2016-03-10T08:10:35.145Z,1008.27
2016-03-10T08:11:35.117Z,1008.31
2016-03-10T08:12:35.087Z,1008.35
2016-03-10T08:13:35.059Z,1008.34
2016-03-10T08:14:35.030Z,1008.33
2016-03-10T08:15:35.018Z,1008.4
2016-03-10T08:16:34.989Z,1008.4
2016-03-10T08:17:34.961Z,1008.39
2016-03-10T08:18:34.933Z,1008.38
2016-03-10T08:19:34.903Z,1008.4
2016-03-10T08:20:34.875Z,1008.43
2016-03-10T08:21:34.861Z,1008.41
2016-03-10T08:22:34.834Z,1008.47
2016-03-10T08:23:34.821Z,1008.48
2016-03-10T08:24:34.792Z,1008.49
2016-03-10T08:25:34.763Z,1008.49
2016-03-10T08:26:34.735Z,1008.53
2016-03-10T08:27:34.707Z,1008.53
2016-03-10T08:28:34.677Z,1008.55
2016-03-10T08:29:34.665Z,1008.55
2016-03-10T08:30:34.621Z,1008.59
2016-03-10T08:31:34.608Z,1008.59
2016-03-10T08:32:34.579Z,1008.57
2016-03-10T08:33:34.551Z,1008.61
2016-03-10T08:34:34.522Z,1008.58
2016-03-10T08:35:34.509Z,1008.63
2016-03-10T08:36:34.481Z,1008.63
2016-03-10T08:37:34.451Z,1008.64
2016-03-10T08:38:34.424Z,1008.67
2016-03-10T08:39:34.410Z,1008.71
2016-03-10T08:40:34.367Z,1008.73
2016-03-10T08:41:34.354Z,1008.75
2016-03-10T08:42:34.340Z,1008.8
2016-03-10T08:43:34.312Z,1008.79
2016-03-10T08:44:34.268Z,1008.82
2016-03-10T08:45:34.256Z,1008.84
2016-03-10T08:46:34.226Z,1008.84
2016-03-10T08:47:34.197Z,1008.87
2016-03-10T08:48:34.169Z,1008.86
2016-03-10T08:49:34.156Z,1008.87
2016-03-10T08:50:34.158Z,1008.89
2016-03-10T08:51:34.161Z,1008.86
2016-03-10T08:52:34.070Z,1008.91
2016-03-10T08:53:34.058Z,1008.92
2016-03-10T08:54:34.014Z,1008.91
2016-03-10T08:55:34.000Z,1008.92
2016-03-10T08:56:33.972Z,1008.94
2016-03-10T08:57:33.944Z,1008.95
2016-03-10T08:58:33.946Z,1008.96
2016-03-10T08:59:33.885Z,1008.97
2016-03-10T09:00:33.888Z,1009.01
2016-03-10T09:01:33.844Z,1009.01
2016-03-10T09:02:33.847Z,1009
2016-03-10T09:03:33.787Z,1009.04
2016-03-10T09:04:33.775Z,1009.04
2016-03-10T09:05:33.746Z,1009.02
2016-03-10T09:06:33.714Z,1009.05
2016-03-10T09:07:33.700Z,1009.1
2016-03-10T09:08:33.672Z,1009.08
2016-03-10T09:09:33.644Z,1009.05
2016-03-10T09:10:33.615Z,1009.03
2016-03-10T09:11:33.586Z,1009.01
2016-03-10T09:12:33.558Z,1009.03
2016-03-10T09:13:33.530Z,1009.05
2016-03-10T09:14:33.516Z,1009.04
2016-03-10T09:15:33.487Z,1009.05
2016-03-10T09:16:33.475Z,1009.04
2016-03-10T09:17:33.430Z,1009.03
2016-03-10T09:18:33.418Z,1009.04
2016-03-10T09:19:33.389Z,1009.08
2016-03-10T09:20:33.360Z,1009.08
2016-03-10T09:21:33.348Z,1009.12
2016-03-10T09:22:33.318Z,1009.1
2016-03-10T09:23:33.291Z,1009.15
2016-03-10T09:24:33.262Z,1009.13
2016-03-10T09:25:33.248Z,1009.18
2016-03-10T09:26:33.220Z,1009.19
2016-03-10T09:27:33.192Z,1009.23
2016-03-10T09:28:33.164Z,1009.22
2016-03-10T09:29:33.135Z,1009.24
2016-03-10T09:30:33.123Z,1009.23
2016-03-10T09:31:33.093Z,1009.2
2016-03-10T09:32:33.064Z,1009.19
2016-03-10T09:33:33.036Z,1009.21
2016-03-10T09:34:33.023Z,1009.23
2016-03-10T09:35:32.994Z,1009.21
2016-03-10T09:36:32.966Z,1009.19
2016-03-10T09:37:32.938Z,1009.23
2016-03-10T09:38:32.909Z,1009.23
2016-03-10T09:39:32.896Z,1009.26
2016-03-10T09:40:32.868Z,1009.22
2016-03-10T09:41:32.839Z,1009.28
2016-03-10T09:42:32.827Z,1009.27
2016-03-10T09:43:32.797Z,1009.28
2016-03-10T09:44:32.769Z,1009.32
2016-03-10T09:45:32.741Z,1009.32
2016-03-10T09:46:32.727Z,1009.33
2016-03-10T09:47:32.699Z,1009.37
2016-03-10T09:48:32.671Z,1009.38
2016-03-10T09:49:32.657Z,1009.36
2016-03-10T09:50:32.618Z,1009.39
2016-03-10T09:51:32.980Z,1009.38
2016-03-10T09:52:32.577Z,1009.4
2016-03-10T09:53:32.548Z,1009.4
2016-03-10T09:54:32.550Z,1009.43
2016-03-10T09:55:32.507Z,1009.43
2016-03-10T09:56:32.493Z,1009.46
2016-03-10T09:57:32.496Z,1009.47
2016-03-10T09:58:32.437Z,1009.46
2016-03-10T09:59:32.424Z,1009.52
2016-03-10T10:00:32.395Z,1009.51
2016-03-10T10:01:32.366Z,1009.55
2016-03-10T10:02:32.339Z,1009.55
2016-03-10T10:03:32.325Z,1009.6
2016-03-10T10:04:32.297Z,1009.57
2016-03-10T10:05:32.283Z,1009.62
2016-03-10T10:06:32.255Z,1009.61
2016-03-10T10:07:32.227Z,1009.6
2016-03-10T10:08:32.197Z,1009.61
2016-03-10T10:09:32.185Z,1009.63
2016-03-10T10:10:32.156Z,1009.65
2016-03-10T10:11:32.143Z,1009.64
2016-03-10T10:12:32.115Z,1009.66
2016-03-10T10:13:32.086Z,1009.69
2016-03-10T10:14:32.073Z,1009.69
2016-03-10T10:15:32.044Z,1009.67
2016-03-10T10:16:32.031Z,1009.7
2016-03-10T10:17:31.988Z,1009.7
2016-03-10T10:18:31.974Z,1009.71
2016-03-10T10:19:31.946Z,1009.72
2016-03-10T10:20:31.933Z,1009.69
2016-03-10T10:21:31.904Z,1009.75
2016-03-10T10:22:31.876Z,1009.73
2016-03-10T10:23:31.863Z,1009.7
2016-03-10T10:24:31.835Z,1009.69
2016-03-10T10:25:31.806Z,1009.76
2016-03-10T10:26:31.792Z,1009.71
2016-03-10T10:27:31.764Z,1009.77
2016-03-10T10:28:31.751Z,1009.78
2016-03-10T10:29:31.723Z,1009.77
2016-03-10T10:30:31.695Z,1009.76
2016-03-10T10:31:31.681Z,1009.79
2016-03-10T10:32:31.653Z,1009.74
2016-03-10T10:33:31.625Z,1009.82
2016-03-10T10:34:31.611Z,1009.79
2016-03-10T10:35:31.583Z,1009.82
2016-03-10T10:36:31.570Z,1009.77
2016-03-10T10:37:31.541Z,1009.78
2016-03-10T10:38:31.528Z,1009.77
2016-03-10T10:39:31.500Z,1009.78
2016-03-10T10:40:31.471Z,1009.81
2016-03-10T10:41:31.443Z,1009.8
2016-03-10T10:42:31.414Z,1009.83
2016-03-10T10:43:31.401Z,1009.79
2016-03-10T10:44:31.372Z,1009.83
2016-03-10T10:45:31.360Z,1009.84
2016-03-10T10:46:31.331Z,1009.81
2016-03-10T10:47:31.303Z,1009.87
2016-03-10T10:48:31.290Z,1009.84
2016-03-10T10:49:31.261Z,1009.82
2016-03-10T10:50:31.248Z,1009.82
2016-03-10T10:51:31.220Z,1009.84
2016-03-10T10:52:31.207Z,1009.88
2016-03-10T10:53:31.178Z,1009.86
2016-03-10T10:54:31.415Z,1009.89
2016-03-10T10:55:31.137Z,1009.86
2016-03-10T10:56:31.109Z,1009.89
2016-03-10T10:57:31.079Z,1009.9
2016-03-10T10:58:31.067Z,1009.91
2016-03-10T10:59:31.037Z,1009.88
2016-03-10T11:00:31.009Z,1009.87
2016-03-10T11:01:30.997Z,1009.88
2016-03-10T11:02:30.968Z,1009.89
2016-03-10T11:03:30.940Z,1009.94
2016-03-10T11:04:30.926Z,1009.93
2016-03-10T11:05:30.914Z,1009.93
2016-03-10T11:06:30.885Z,1009.95
2016-03-10T11:07:30.856Z,1009.99
2016-03-10T11:08:30.843Z,1009.96
2016-03-10T11:09:30.815Z,1009.98
2016-03-10T11:10:30.786Z,1009.98
2016-03-10T11:11:30.773Z,1010.02
2016-03-10T11:12:30.760Z,1010
2016-03-10T11:13:30.747Z,1009.97
2016-03-10T11:14:30.703Z,1009.99
2016-03-10T11:15:30.691Z,1010
2016-03-10T11:16:31.115Z,1009.98
2016-03-10T11:17:30.633Z,1010
2016-03-10T11:18:30.621Z,1010.02
2016-03-10T11:19:30.591Z,1010.01
2016-03-10T11:20:30.563Z,1010.08
2016-03-10T11:21:30.550Z,1010.07
2016-03-10T11:22:30.521Z,1010.09
2016-03-10T11:23:30.509Z,1010.05
2016-03-10T11:24:30.496Z,1010.09
2016-03-10T11:25:30.467Z,1010.08
2016-03-10T11:26:30.439Z,1010.07
2016-03-10T11:27:30.410Z,1010.06
2016-03-10T11:28:30.398Z,1010.06
2016-03-10T11:29:30.368Z,1010.02
2016-03-10T11:30:30.356Z,1010.03
2016-03-10T11:31:30.328Z,1010.06
2016-03-10T11:32:30.314Z,1010.06
2016-03-10T11:33:30.286Z,1010.04
2016-03-10T11:34:30.257Z,1010.09
2016-03-10T11:35:30.244Z,1010.07
2016-03-10T11:36:30.216Z,1010.08
2016-03-10T11:37:30.219Z,1010.14
2016-03-10T11:38:30.190Z,1010.15
2016-03-10T11:39:30.161Z,1010.12
2016-03-10T11:40:30.133Z,1010.14
2016-03-10T11:41:30.119Z,1010.16
2016-03-10T11:42:30.091Z,1010.12
2016-03-10T11:43:30.078Z,1010.13
2016-03-10T11:44:30.049Z,1010.15
2016-03-10T11:45:30.021Z,1010.16
2016-03-10T11:46:30.008Z,1010.2
2016-03-10T11:47:29.979Z,1010.21
2016-03-10T11:48:29.951Z,1010.2
2016-03-10T11:49:29.938Z,1010.21
2016-03-10T11:50:29.910Z,1010.24
2016-03-10T11:51:29.896Z,1010.24
2016-03-10T11:52:29.868Z,1010.24
2016-03-10T11:53:29.855Z,1010.27
2016-03-10T11:54:29.827Z,1010.28
2016-03-10T11:55:29.813Z,1010.26
2016-03-10T11:56:29.785Z,1010.27
2016-03-10T11:57:29.773Z,1010.29
2016-03-10T11:58:29.744Z,1010.27
2016-03-10T11:59:29.715Z,1010.23
2016-03-10T12:00:29.702Z,1010.25
2016-03-10T12:01:29.674Z,1010.29
2016-03-10T12:02:29.661Z,1010.26
2016-03-10T12:03:29.632Z,1010.23
2016-03-10T12:04:29.603Z,1010.29
2016-03-10T12:05:29.591Z,1010.28
2016-03-10T12:06:29.561Z,1010.25
2016-03-10T12:07:29.550Z,1010.29
2016-03-10T12:08:29.521Z,1010.27